sensor_id;sensor_type;location;lat;lon;timestamp;temperature;humidity
7494;DHT22;3788;49.902;8.590;2022-08-03T00:01:32;21.80;71.00
7494;DHT22;3788;49.902;8.590;2022-08-03T00:03:58;21.90;71.00
7494;DHT22;3788;49.902;8.590;2022-08-03T00:06:25;21.90;70.90
7494;DHT22;3788;49.902;8.590;2022-08-03T00:08:52;21.90;70.80
7494;DHT22;3788;49.902;8.590;2022-08-03T00:11:19;21.90;70.80
7494;DHT22;3788;49.902;8.590;2022-08-03T00:13:46;21.90;70.80
7494;DHT22;3788;49.902;8.590;2022-08-03T00:16:14;21.90;71.00
7494;DHT22;3788;49.902;8.590;2022-08-03T00:18:41;21.90;71.00
7494;DHT22;3788;49.902;8.590;2022-08-03T00:21:08;21.90;71.00
7494;DHT22;3788;49.902;8.590;2022-08-03T00:23:35;21.90;71.40
7494;DHT22;3788;49.902;8.590;2022-08-03T00:26:01;21.80;71.90
7494;DHT22;3788;49.902;8.590;2022-08-03T00:28:28;21.80;72.50
7494;DHT22;3788;49.902;8.590;2022-08-03T00:30:55;21.70;72.90
7494;DHT22;3788;49.902;8.590;2022-08-03T00:33:23;21.60;73.30
7494;DHT22;3788;49.902;8.590;2022-08-03T00:35:50;21.60;73.80
7494;DHT22;3788;49.902;8.590;2022-08-03T00:38:17;21.50;74.30
7494;DHT22;3788;49.902;8.590;2022-08-03T00:40:44;21.40;75.00
7494;DHT22;3788;49.902;8.590;2022-08-03T00:43:11;21.40;75.90
7494;DHT22;3788;49.902;8.590;2022-08-03T00:45:39;21.30;76.70
7494;DHT22;3788;49.902;8.590;2022-08-03T00:48:08;21.20;77.20
7494;DHT22;3788;49.902;8.590;2022-08-03T00:50:39;21.20;77.90
7494;DHT22;3788;49.902;8.590;2022-08-03T00:53:09;21.20;78.70
7494;DHT22;3788;49.902;8.590;2022-08-03T00:55:38;21.20;79.30
7494;DHT22;3788;49.902;8.590;2022-08-03T00:58:05;21.10;80.00
7494;DHT22;3788;49.902;8.590;2022-08-03T01:00:33;21.00;80.40
7494;DHT22;3788;49.902;8.590;2022-08-03T01:03:03;21.00;80.90
7494;DHT22;3788;49.902;8.590;2022-08-03T01:05:32;21.00;80.80
7494;DHT22;3788;49.902;8.590;2022-08-03T01:08:10;21.10;80.60
7494;DHT22;3788;49.902;8.590;2022-08-03T01:10:43;21.10;80.40
7494;DHT22;3788;49.902;8.590;2022-08-03T01:13:21;21.10;80.60
7494;DHT22;3788;49.902;8.590;2022-08-03T01:15:55;21.10;81.00
7494;DHT22;3788;49.902;8.590;2022-08-03T01:18:30;21.00;81.40
7494;DHT22;3788;49.902;8.590;2022-08-03T01:20:59;21.00;81.90
7494;DHT22;3788;49.902;8.590;2022-08-03T01:23:48;21.00;82.40
7494;DHT22;3788;49.902;8.590;2022-08-03T01:26:41;21.00;82.50
7494;DHT22;3788;49.902;8.590;2022-08-03T01:32:19;21.10;82.80
7494;DHT22;3788;49.902;8.590;2022-08-03T01:34:51;21.10;83.10
7494;DHT22;3788;49.902;8.590;2022-08-03T01:37:25;21.10;83.30
7494;DHT22;3788;49.902;8.590;2022-08-03T01:39:55;21.00;83.70
7494;DHT22;3788;49.902;8.590;2022-08-03T01:42:24;20.90;84.20
7494;DHT22;3788;49.902;8.590;2022-08-03T01:44:52;20.90;84.80
7494;DHT22;3788;49.902;8.590;2022-08-03T01:47:21;20.80;85.20
7494;DHT22;3788;49.902;8.590;2022-08-03T01:49:50;20.80;85.70
7494;DHT22;3788;49.902;8.590;2022-08-03T01:52:18;20.70;86.20
7494;DHT22;3788;49.902;8.590;2022-08-03T01:54:49;20.70;86.70
7494;DHT22;3788;49.902;8.590;2022-08-03T01:57:17;20.70;87.20
7494;DHT22;3788;49.902;8.590;2022-08-03T01:59:46;20.60;87.70
7494;DHT22;3788;49.902;8.590;2022-08-03T02:02:15;20.60;88.30
7494;DHT22;3788;49.902;8.590;2022-08-03T02:04:45;20.50;88.70
7494;DHT22;3788;49.902;8.590;2022-08-03T02:07:13;20.50;88.60
7494;DHT22;3788;49.902;8.590;2022-08-03T02:09:43;20.50;88.30
7494;DHT22;3788;49.902;8.590;2022-08-03T02:12:11;20.50;88.10
7494;DHT22;3788;49.902;8.590;2022-08-03T02:14:40;20.50;87.90
7494;DHT22;3788;49.902;8.590;2022-08-03T02:17:08;20.40;87.80
7494;DHT22;3788;49.902;8.590;2022-08-03T02:19:36;20.40;87.80
7494;DHT22;3788;49.902;8.590;2022-08-03T02:22:09;20.40;87.90
7494;DHT22;3788;49.902;8.590;2022-08-03T02:24:37;20.40;88.00
7494;DHT22;3788;49.902;8.590;2022-08-03T02:27:09;20.30;88.00
7494;DHT22;3788;49.902;8.590;2022-08-03T02:29:38;20.30;88.00
7494;DHT22;3788;49.902;8.590;2022-08-03T02:32:08;20.20;87.90
7494;DHT22;3788;49.902;8.590;2022-08-03T02:34:35;20.20;87.90
7494;DHT22;3788;49.902;8.590;2022-08-03T02:37:04;20.10;87.70
7494;DHT22;3788;49.902;8.590;2022-08-03T02:39:34;20.00;87.50
7494;DHT22;3788;49.902;8.590;2022-08-03T02:42:02;20.00;87.60
7494;DHT22;3788;49.902;8.590;2022-08-03T02:44:31;19.90;87.60
7494;DHT22;3788;49.902;8.590;2022-08-03T02:47:02;19.90;87.70
7494;DHT22;3788;49.902;8.590;2022-08-03T02:49:30;19.80;87.70
7494;DHT22;3788;49.902;8.590;2022-08-03T02:51:58;19.80;87.60
7494;DHT22;3788;49.902;8.590;2022-08-03T02:54:26;19.80;87.70
7494;DHT22;3788;49.902;8.590;2022-08-03T02:56:56;19.80;87.70
7494;DHT22;3788;49.902;8.590;2022-08-03T02:59:24;19.80;87.80
7494;DHT22;3788;49.902;8.590;2022-08-03T03:01:52;19.70;87.80
7494;DHT22;3788;49.902;8.590;2022-08-03T03:04:21;19.70;87.90
7494;DHT22;3788;49.902;8.590;2022-08-03T03:06:49;19.70;88.00
7494;DHT22;3788;49.902;8.590;2022-08-03T03:09:16;19.70;88.10
7494;DHT22;3788;49.902;8.590;2022-08-03T03:11:46;19.60;88.10
7494;DHT22;3788;49.902;8.590;2022-08-03T03:14:14;19.60;88.20
7494;DHT22;3788;49.902;8.590;2022-08-03T03:16:42;19.60;88.40
7494;DHT22;3788;49.902;8.590;2022-08-03T03:19:11;19.60;88.50
7494;DHT22;3788;49.902;8.590;2022-08-03T03:21:39;19.60;88.30
7494;DHT22;3788;49.902;8.590;2022-08-03T03:24:06;19.60;88.20
7494;DHT22;3788;49.902;8.590;2022-08-03T03:26:34;19.60;88.30
7494;DHT22;3788;49.902;8.590;2022-08-03T03:29:03;19.60;88.60
7494;DHT22;3788;49.902;8.590;2022-08-03T03:31:30;19.60;88.70
7494;DHT22;3788;49.902;8.590;2022-08-03T03:33:57;19.50;88.60
7494;DHT22;3788;49.902;8.590;2022-08-03T03:36:23;19.50;88.50
7494;DHT22;3788;49.902;8.590;2022-08-03T03:38:50;19.40;88.40
7494;DHT22;3788;49.902;8.590;2022-08-03T03:41:17;19.40;88.40
7494;DHT22;3788;49.902;8.590;2022-08-03T03:43:44;19.40;88.40
7494;DHT22;3788;49.902;8.590;2022-08-03T03:46:12;19.40;88.50
7494;DHT22;3788;49.902;8.590;2022-08-03T03:48:39;19.30;88.40
7494;DHT22;3788;49.902;8.590;2022-08-03T03:51:06;19.20;88.50
7494;DHT22;3788;49.902;8.590;2022-08-03T03:53:33;19.20;88.60
7494;DHT22;3788;49.902;8.590;2022-08-03T03:56:00;19.20;88.80
7494;DHT22;3788;49.902;8.590;2022-08-03T03:58:27;19.20;88.80
7494;DHT22;3788;49.902;8.590;2022-08-03T04:00:53;19.20;89.60
7494;DHT22;3788;49.902;8.590;2022-08-03T04:03:22;19.20;89.00
7494;DHT22;3788;49.902;8.590;2022-08-03T04:05:49;19.20;89.20
7494;DHT22;3788;49.902;8.590;2022-08-03T04:08:33;19.20;89.40
7494;DHT22;3788;49.902;8.590;2022-08-03T04:11:19;19.20;89.60
7494;DHT22;3788;49.902;8.590;2022-08-03T04:13:50;19.10;89.60
7494;DHT22;3788;49.902;8.590;2022-08-03T04:16:19;19.10;89.70
7494;DHT22;3788;49.902;8.590;2022-08-03T04:18:51;19.10;89.70
7494;DHT22;3788;49.902;8.590;2022-08-03T04:21:20;19.10;89.80
7494;DHT22;3788;49.902;8.590;2022-08-03T04:23:52;19.10;89.80
7494;DHT22;3788;49.902;8.590;2022-08-03T04:26:21;19.10;89.90
7494;DHT22;3788;49.902;8.590;2022-08-03T04:28:48;19.10;90.00
7494;DHT22;3788;49.902;8.590;2022-08-03T04:31:17;19.00;90.00
7494;DHT22;3788;49.902;8.590;2022-08-03T04:33:47;19.00;90.00
7494;DHT22;3788;49.902;8.590;2022-08-03T04:36:18;19.10;90.10
7494;DHT22;3788;49.902;8.590;2022-08-03T04:38:53;19.00;90.00
7494;DHT22;3788;49.902;8.590;2022-08-03T04:41:22;19.10;90.10
7494;DHT22;3788;49.902;8.590;2022-08-03T04:43:51;19.10;90.10
7494;DHT22;3788;49.902;8.590;2022-08-03T04:46:21;19.10;90.00
7494;DHT22;3788;49.902;8.590;2022-08-03T04:48:50;19.20;90.00
7494;DHT22;3788;49.902;8.590;2022-08-03T04:51:17;19.20;90.00
7494;DHT22;3788;49.902;8.590;2022-08-03T04:53:44;19.30;90.10
7494;DHT22;3788;49.902;8.590;2022-08-03T04:56:10;19.30;90.20
7494;DHT22;3788;49.902;8.590;2022-08-03T04:58:37;19.30;90.20
7494;DHT22;3788;49.902;8.590;2022-08-03T05:01:04;19.40;90.30
7494;DHT22;3788;49.902;8.590;2022-08-03T05:03:31;19.50;90.30
7494;DHT22;3788;49.902;8.590;2022-08-03T05:06:00;19.50;90.20
7494;DHT22;3788;49.902;8.590;2022-08-03T05:08:27;19.60;90.20
7494;DHT22;3788;49.902;8.590;2022-08-03T05:10:54;19.60;90.10
7494;DHT22;3788;49.902;8.590;2022-08-03T05:13:20;19.70;90.10
7494;DHT22;3788;49.902;8.590;2022-08-03T05:15:47;19.80;90.10
7494;DHT22;3788;49.902;8.590;2022-08-03T05:18:15;19.80;90.00
7494;DHT22;3788;49.902;8.590;2022-08-03T05:20:42;19.80;89.90
7494;DHT22;3788;49.902;8.590;2022-08-03T05:23:10;19.90;89.90
7494;DHT22;3788;49.902;8.590;2022-08-03T05:25:36;19.90;89.80
7494;DHT22;3788;49.902;8.590;2022-08-03T05:28:03;19.90;89.70
7494;DHT22;3788;49.902;8.590;2022-08-03T05:30:30;19.90;89.60
7494;DHT22;3788;49.902;8.590;2022-08-03T05:32:57;20.00;89.50
7494;DHT22;3788;49.902;8.590;2022-08-03T05:35:24;20.00;89.50
7494;DHT22;3788;49.902;8.590;2022-08-03T05:37:52;20.10;89.50
7494;DHT22;3788;49.902;8.590;2022-08-03T05:40:20;20.10;89.40
7494;DHT22;3788;49.902;8.590;2022-08-03T05:42:47;20.20;89.40
7494;DHT22;3788;49.902;8.590;2022-08-03T05:45:14;20.20;89.10
7494;DHT22;3788;49.902;8.590;2022-08-03T05:47:42;20.20;89.00
7494;DHT22;3788;49.902;8.590;2022-08-03T05:50:09;20.20;88.90
7494;DHT22;3788;49.902;8.590;2022-08-03T05:52:36;20.30;88.90
7494;DHT22;3788;49.902;8.590;2022-08-03T05:55:03;20.40;88.80
7494;DHT22;3788;49.902;8.590;2022-08-03T05:57:31;20.50;88.90
7494;DHT22;3788;49.902;8.590;2022-08-03T05:59:58;20.60;88.90
7494;DHT22;3788;49.902;8.590;2022-08-03T06:02:25;20.60;88.80
7494;DHT22;3788;49.902;8.590;2022-08-03T06:04:52;20.70;88.70
7494;DHT22;3788;49.902;8.590;2022-08-03T06:07:19;20.70;88.50
7494;DHT22;3788;49.902;8.590;2022-08-03T06:09:45;20.80;88.50
7494;DHT22;3788;49.902;8.590;2022-08-03T06:12:12;20.90;88.40
7494;DHT22;3788;49.902;8.590;2022-08-03T06:14:40;21.00;88.10
7494;DHT22;3788;49.902;8.590;2022-08-03T06:17:07;21.00;87.90
7494;DHT22;3788;49.902;8.590;2022-08-03T06:19:33;21.10;87.70
7494;DHT22;3788;49.902;8.590;2022-08-03T06:22:01;21.20;87.50
7494;DHT22;3788;49.902;8.590;2022-08-03T06:24:27;21.30;87.00
7494;DHT22;3788;49.902;8.590;2022-08-03T06:26:54;21.40;86.60
7494;DHT22;3788;49.902;8.590;2022-08-03T06:29:21;21.50;86.10
7494;DHT22;3788;49.902;8.590;2022-08-03T06:31:49;21.50;85.90
7494;DHT22;3788;49.902;8.590;2022-08-03T06:34:16;21.60;85.40
7494;DHT22;3788;49.902;8.590;2022-08-03T06:36:43;21.70;85.00
7494;DHT22;3788;49.902;8.590;2022-08-03T06:39:12;21.80;84.80
7494;DHT22;3788;49.902;8.590;2022-08-03T06:41:39;21.90;84.50
7494;DHT22;3788;49.902;8.590;2022-08-03T06:44:06;22.00;84.20
7494;DHT22;3788;49.902;8.590;2022-08-03T06:46:32;22.10;83.90
7494;DHT22;3788;49.902;8.590;2022-08-03T06:49:00;22.20;83.60
7494;DHT22;3788;49.902;8.590;2022-08-03T06:51:27;22.20;83.10
7494;DHT22;3788;49.902;8.590;2022-08-03T06:53:54;22.40;82.90
7494;DHT22;3788;49.902;8.590;2022-08-03T06:56:21;22.50;82.50
7494;DHT22;3788;49.902;8.590;2022-08-03T06:58:47;22.60;82.20
7494;DHT22;3788;49.902;8.590;2022-08-03T07:01:14;22.60;81.70
7494;DHT22;3788;49.902;8.590;2022-08-03T07:03:41;22.70;81.60
7494;DHT22;3788;49.902;8.590;2022-08-03T07:06:08;22.80;81.50
7494;DHT22;3788;49.902;8.590;2022-08-03T07:08:35;22.90;81.10
7494;DHT22;3788;49.902;8.590;2022-08-03T07:11:02;23.00;80.50
7494;DHT22;3788;49.902;8.590;2022-08-03T07:13:29;23.10;80.10
7494;DHT22;3788;49.902;8.590;2022-08-03T07:15:55;23.30;79.80
7494;DHT22;3788;49.902;8.590;2022-08-03T07:18:22;23.40;79.40
7494;DHT22;3788;49.902;8.590;2022-08-03T07:20:49;23.50;79.00
7494;DHT22;3788;49.902;8.590;2022-08-03T07:23:17;23.70;78.80
7494;DHT22;3788;49.902;8.590;2022-08-03T07:25:44;23.80;78.40
7494;DHT22;3788;49.902;8.590;2022-08-03T07:28:11;23.90;78.10
7494;DHT22;3788;49.902;8.590;2022-08-03T07:30:37;24.00;77.50
7494;DHT22;3788;49.902;8.590;2022-08-03T07:33:04;24.20;76.90
7494;DHT22;3788;49.902;8.590;2022-08-03T07:35:31;24.30;76.10
7494;DHT22;3788;49.902;8.590;2022-08-03T07:37:57;24.50;75.50
7494;DHT22;3788;49.902;8.590;2022-08-03T07:40:25;24.60;75.00
7494;DHT22;3788;49.902;8.590;2022-08-03T07:42:52;24.70;74.50
7494;DHT22;3788;49.902;8.590;2022-08-03T07:45:20;24.80;74.20
7494;DHT22;3788;49.902;8.590;2022-08-03T07:47:48;24.90;73.60
7494;DHT22;3788;49.902;8.590;2022-08-03T07:50:15;25.00;73.00
7494;DHT22;3788;49.902;8.590;2022-08-03T07:52:42;25.10;72.50
7494;DHT22;3788;49.902;8.590;2022-08-03T07:55:16;25.20;71.90
7494;DHT22;3788;49.902;8.590;2022-08-03T07:57:44;25.40;71.60
7494;DHT22;3788;49.902;8.590;2022-08-03T08:00:14;25.60;71.30
7494;DHT22;3788;49.902;8.590;2022-08-03T08:02:41;26.40;70.50
7494;DHT22;3788;49.902;8.590;2022-08-03T08:05:08;27.60;68.00
7494;DHT22;3788;49.902;8.590;2022-08-03T08:07:35;28.80;65.20
7494;DHT22;3788;49.902;8.590;2022-08-03T08:10:03;30.00;61.90
7494;DHT22;3788;49.902;8.590;2022-08-03T08:12:30;31.00;59.20
7494;DHT22;3788;49.902;8.590;2022-08-03T08:14:58;32.00;57.40
7494;DHT22;3788;49.902;8.590;2022-08-03T08:17:25;32.70;54.80
7494;DHT22;3788;49.902;8.590;2022-08-03T08:19:52;33.20;53.60
7494;DHT22;3788;49.902;8.590;2022-08-03T08:22:19;33.70;52.70
7494;DHT22;3788;49.902;8.590;2022-08-03T08:24:46;34.20;51.50
7494;DHT22;3788;49.902;8.590;2022-08-03T08:27:13;34.70;50.30
7494;DHT22;3788;49.902;8.590;2022-08-03T08:29:40;35.20;49.60
7494;DHT22;3788;49.902;8.590;2022-08-03T08:32:08;35.50;48.00
7494;DHT22;3788;49.902;8.590;2022-08-03T08:34:35;35.80;46.90
7494;DHT22;3788;49.902;8.590;2022-08-03T08:37:02;36.10;46.10
7494;DHT22;3788;49.902;8.590;2022-08-03T08:39:29;36.30;45.40
7494;DHT22;3788;49.902;8.590;2022-08-03T08:41:55;36.50;44.90
7494;DHT22;3788;49.902;8.590;2022-08-03T08:44:22;36.80;44.50
7494;DHT22;3788;49.902;8.590;2022-08-03T08:46:49;37.20;44.20
7494;DHT22;3788;49.902;8.590;2022-08-03T08:49:22;37.30;43.10
7494;DHT22;3788;49.902;8.590;2022-08-03T08:51:53;37.30;43.00
7494;DHT22;3788;49.902;8.590;2022-08-03T08:54:21;37.30;42.80
7494;DHT22;3788;49.902;8.590;2022-08-03T08:56:49;37.60;42.50
7494;DHT22;3788;49.902;8.590;2022-08-03T08:59:17;37.70;41.90
7494;DHT22;3788;49.902;8.590;2022-08-03T09:01:56;37.90;41.20
7494;DHT22;3788;49.902;8.590;2022-08-03T09:04:24;38.40;41.00
7494;DHT22;3788;49.902;8.590;2022-08-03T09:06:52;38.70;40.60
7494;DHT22;3788;49.902;8.590;2022-08-03T09:09:18;38.90;39.90
7494;DHT22;3788;49.902;8.590;2022-08-03T09:11:47;38.90;39.30
7494;DHT22;3788;49.902;8.590;2022-08-03T09:14:14;38.70;39.00
7494;DHT22;3788;49.902;8.590;2022-08-03T09:16:54;38.50;38.90
7494;DHT22;3788;49.902;8.590;2022-08-03T09:19:22;38.30;38.80
7494;DHT22;3788;49.902;8.590;2022-08-03T09:22:07;38.20;38.90
7494;DHT22;3788;49.902;8.590;2022-08-03T09:24:33;38.10;38.90
7494;DHT22;3788;49.902;8.590;2022-08-03T09:27:00;38.00;39.00
7494;DHT22;3788;49.902;8.590;2022-08-03T09:29:31;37.90;38.80
7494;DHT22;3788;49.902;8.590;2022-08-03T09:32:00;37.60;38.70
7494;DHT22;3788;49.902;8.590;2022-08-03T09:34:27;37.50;39.00
7494;DHT22;3788;49.902;8.590;2022-08-03T09:36:55;37.40;38.70
7494;DHT22;3788;49.902;8.590;2022-08-03T09:39:24;37.40;38.80
7494;DHT22;3788;49.902;8.590;2022-08-03T09:42:04;37.30;39.00
7494;DHT22;3788;49.902;8.590;2022-08-03T09:44:33;37.30;39.20
7494;DHT22;3788;49.902;8.590;2022-08-03T09:47:01;37.40;38.90
7494;DHT22;3788;49.902;8.590;2022-08-03T09:49:28;37.60;38.80
7494;DHT22;3788;49.902;8.590;2022-08-03T09:51:56;37.60;39.10
7494;DHT22;3788;49.902;8.590;2022-08-03T09:54:26;37.60;39.30
7494;DHT22;3788;49.902;8.590;2022-08-03T09:56:53;37.50;39.60
7494;DHT22;3788;49.902;8.590;2022-08-03T09:59:24;37.50;39.30
7494;DHT22;3788;49.902;8.590;2022-08-03T10:01:51;37.50;39.60
7494;DHT22;3788;49.902;8.590;2022-08-03T10:04:18;37.50;39.80
7494;DHT22;3788;49.902;8.590;2022-08-03T10:07:03;37.50;38.70
7494;DHT22;3788;49.902;8.590;2022-08-03T10:09:30;37.30;38.20
7494;DHT22;3788;49.902;8.590;2022-08-03T10:11:57;37.20;38.30
7494;DHT22;3788;49.902;8.590;2022-08-03T10:14:32;37.20;38.00
7494;DHT22;3788;49.902;8.590;2022-08-03T10:17:01;37.30;37.80
7494;DHT22;3788;49.902;8.590;2022-08-03T10:19:27;37.20;38.20
7494;DHT22;3788;49.902;8.590;2022-08-03T10:21:55;37.10;37.90
7494;DHT22;3788;49.902;8.590;2022-08-03T10:24:26;36.90;37.10
7494;DHT22;3788;49.902;8.590;2022-08-03T10:27:00;36.70;37.00
7494;DHT22;3788;49.902;8.590;2022-08-03T10:29:27;36.60;37.00
7494;DHT22;3788;49.902;8.590;2022-08-03T10:31:57;36.60;37.20
7494;DHT22;3788;49.902;8.590;2022-08-03T10:34:26;36.60;37.40
7494;DHT22;3788;49.902;8.590;2022-08-03T10:36:58;36.60;37.80
7494;DHT22;3788;49.902;8.590;2022-08-03T10:39:28;36.50;39.10
7494;DHT22;3788;49.902;8.590;2022-08-03T10:41:56;36.20;39.80
7494;DHT22;3788;49.902;8.590;2022-08-03T10:44:25;36.10;40.90
7494;DHT22;3788;49.902;8.590;2022-08-03T10:46:55;35.90;40.30
7494;DHT22;3788;49.902;8.590;2022-08-03T10:49:23;35.70;40.40
7494;DHT22;3788;49.902;8.590;2022-08-03T10:51:50;35.50;41.10
7494;DHT22;3788;49.902;8.590;2022-08-03T10:54:41;35.50;41.60
7494;DHT22;3788;49.902;8.590;2022-08-03T10:57:46;35.50;40.90
7494;DHT22;3788;49.902;8.590;2022-08-03T11:00:13;35.50;41.20
7494;DHT22;3788;49.902;8.590;2022-08-03T11:03:06;35.50;40.80
7494;DHT22;3788;49.902;8.590;2022-08-03T11:05:36;35.30;41.00
7494;DHT22;3788;49.902;8.590;2022-08-03T11:08:17;35.10;40.90
7494;DHT22;3788;49.902;8.590;2022-08-03T11:10:46;34.80;41.10
7494;DHT22;3788;49.902;8.590;2022-08-03T11:13:15;34.60;41.00
7494;DHT22;3788;49.902;8.590;2022-08-03T11:15:44;34.50;40.90
7494;DHT22;3788;49.902;8.590;2022-08-03T11:18:11;34.40;40.80
7494;DHT22;3788;49.902;8.590;2022-08-03T11:20:50;34.40;40.70
7494;DHT22;3788;49.902;8.590;2022-08-03T11:23:19;34.40;40.60
7494;DHT22;3788;49.902;8.590;2022-08-03T11:26:09;34.40;40.60
7494;DHT22;3788;49.902;8.590;2022-08-03T11:28:36;34.20;40.40
7494;DHT22;3788;49.902;8.590;2022-08-03T11:34:17;33.90;42.60
7494;DHT22;3788;49.902;8.590;2022-08-03T11:37:19;33.70;42.70
7494;DHT22;3788;49.902;8.590;2022-08-03T11:39:53;33.50;43.30
7494;DHT22;3788;49.902;8.590;2022-08-03T11:42:42;33.40;43.70
7494;DHT22;3788;49.902;8.590;2022-08-03T11:45:14;33.50;43.40
7494;DHT22;3788;49.902;8.590;2022-08-03T11:47:44;33.50;43.90
7494;DHT22;3788;49.902;8.590;2022-08-03T11:50:11;33.40;44.00
7494;DHT22;3788;49.902;8.590;2022-08-03T11:52:40;33.30;44.10
7494;DHT22;3788;49.902;8.590;2022-08-03T11:55:11;33.30;44.00
7494;DHT22;3788;49.902;8.590;2022-08-03T11:57:41;33.20;44.30
7494;DHT22;3788;49.902;8.590;2022-08-03T12:00:21;33.00;44.40
7494;DHT22;3788;49.902;8.590;2022-08-03T12:03:02;32.80;44.20
7494;DHT22;3788;49.902;8.590;2022-08-03T12:05:37;32.70;44.60
7494;DHT22;3788;49.902;8.590;2022-08-03T12:08:05;32.60;44.80
7494;DHT22;3788;49.902;8.590;2022-08-03T12:10:34;32.50;44.60
7494;DHT22;3788;49.902;8.590;2022-08-03T12:13:04;32.70;44.80
7494;DHT22;3788;49.902;8.590;2022-08-03T12:15:34;32.60;44.50
7494;DHT22;3788;49.902;8.590;2022-08-03T12:18:02;32.50;44.50
7494;DHT22;3788;49.902;8.590;2022-08-03T12:20:31;32.50;44.40
7494;DHT22;3788;49.902;8.590;2022-08-03T12:23:02;32.40;44.30
7494;DHT22;3788;49.902;8.590;2022-08-03T12:25:29;32.30;44.50
7494;DHT22;3788;49.902;8.590;2022-08-03T12:28:11;32.30;44.60
7494;DHT22;3788;49.902;8.590;2022-08-03T12:30:38;32.30;44.10
7494;DHT22;3788;49.902;8.590;2022-08-03T12:33:17;32.20;43.90
7494;DHT22;3788;49.902;8.590;2022-08-03T12:35:46;32.20;43.80
7494;DHT22;3788;49.902;8.590;2022-08-03T12:38:18;32.20;43.80
7494;DHT22;3788;49.902;8.590;2022-08-03T12:40:58;32.20;44.00
7494;DHT22;3788;49.902;8.590;2022-08-03T12:43:26;32.20;44.40
7494;DHT22;3788;49.902;8.590;2022-08-03T12:46:08;32.10;44.30
7494;DHT22;3788;49.902;8.590;2022-08-03T12:48:35;32.10;44.40
7494;DHT22;3788;49.902;8.590;2022-08-03T12:51:08;32.10;44.40
7494;DHT22;3788;49.902;8.590;2022-08-03T12:53:36;32.10;44.00
7494;DHT22;3788;49.902;8.590;2022-08-03T12:56:04;32.10;43.90
7494;DHT22;3788;49.902;8.590;2022-08-03T12:58:33;32.20;43.80
7494;DHT22;3788;49.902;8.590;2022-08-03T13:01:00;32.40;44.00
7494;DHT22;3788;49.902;8.590;2022-08-03T13:03:27;32.40;44.40
7494;DHT22;3788;49.902;8.590;2022-08-03T13:05:54;32.40;44.00
7494;DHT22;3788;49.902;8.590;2022-08-03T13:08:23;32.40;44.00
7494;DHT22;3788;49.902;8.590;2022-08-03T13:10:50;32.40;44.00
7494;DHT22;3788;49.902;8.590;2022-08-03T13:13:17;32.30;44.00
7494;DHT22;3788;49.902;8.590;2022-08-03T13:15:46;32.30;44.10
7494;DHT22;3788;49.902;8.590;2022-08-03T13:18:12;32.30;44.00
7494;DHT22;3788;49.902;8.590;2022-08-03T13:20:39;32.20;44.00
7494;DHT22;3788;49.902;8.590;2022-08-03T13:23:07;32.20;44.20
7494;DHT22;3788;49.902;8.590;2022-08-03T13:25:34;32.10;44.40
7494;DHT22;3788;49.902;8.590;2022-08-03T13:28:01;32.10;44.50
7494;DHT22;3788;49.902;8.590;2022-08-03T13:30:30;32.10;44.50
7494;DHT22;3788;49.902;8.590;2022-08-03T13:32:58;32.10;44.30
7494;DHT22;3788;49.902;8.590;2022-08-03T13:35:25;32.10;44.50
7494;DHT22;3788;49.902;8.590;2022-08-03T13:37:52;32.00;44.40
7494;DHT22;3788;49.902;8.590;2022-08-03T13:40:19;32.00;44.10
7494;DHT22;3788;49.902;8.590;2022-08-03T13:42:45;32.00;44.10
7494;DHT22;3788;49.902;8.590;2022-08-03T13:45:12;32.10;44.20
7494;DHT22;3788;49.902;8.590;2022-08-03T13:47:39;32.10;44.00
7494;DHT22;3788;49.902;8.590;2022-08-03T13:50:07;32.30;44.00
7494;DHT22;3788;49.902;8.590;2022-08-03T13:52:34;32.40;44.00
7494;DHT22;3788;49.902;8.590;2022-08-03T13:55:03;32.40;44.00
7494;DHT22;3788;49.902;8.590;2022-08-03T13:57:30;32.40;44.10
7494;DHT22;3788;49.902;8.590;2022-08-03T13:59:56;32.30;44.40
7494;DHT22;3788;49.902;8.590;2022-08-03T14:02:23;32.30;44.50
7494;DHT22;3788;49.902;8.590;2022-08-03T14:04:50;32.30;44.30
7494;DHT22;3788;49.902;8.590;2022-08-03T14:07:18;32.30;44.10
7494;DHT22;3788;49.902;8.590;2022-08-03T14:09:45;32.30;43.80
7494;DHT22;3788;49.902;8.590;2022-08-03T14:12:14;32.20;44.00
7494;DHT22;3788;49.902;8.590;2022-08-03T14:14:41;32.30;43.90
7494;DHT22;3788;49.902;8.590;2022-08-03T14:17:08;32.30;44.00
7494;DHT22;3788;49.902;8.590;2022-08-03T14:19:35;32.30;44.10
7494;DHT22;3788;49.902;8.590;2022-08-03T14:22:02;32.30;44.00
7494;DHT22;3788;49.902;8.590;2022-08-03T14:24:30;32.30;43.60
7494;DHT22;3788;49.902;8.590;2022-08-03T14:26:56;32.40;43.50
7494;DHT22;3788;49.902;8.590;2022-08-03T14:29:23;32.50;43.80
7494;DHT22;3788;49.902;8.590;2022-08-03T14:31:50;32.50;44.00
7494;DHT22;3788;49.902;8.590;2022-08-03T14:34:16;32.40;44.00
7494;DHT22;3788;49.902;8.590;2022-08-03T14:36:43;32.40;44.10
7494;DHT22;3788;49.902;8.590;2022-08-03T14:39:11;32.40;43.90
7494;DHT22;3788;49.902;8.590;2022-08-03T14:41:39;32.30;43.90
7494;DHT22;3788;49.902;8.590;2022-08-03T14:44:06;32.30;44.10
7494;DHT22;3788;49.902;8.590;2022-08-03T14:46:33;32.20;43.80
7494;DHT22;3788;49.902;8.590;2022-08-03T14:48:59;32.20;43.70
7494;DHT22;3788;49.902;8.590;2022-08-03T14:51:27;32.20;44.00
7494;DHT22;3788;49.902;8.590;2022-08-03T14:53:54;32.20;44.20
7494;DHT22;3788;49.902;8.590;2022-08-03T14:56:20;32.10;44.00
7494;DHT22;3788;49.902;8.590;2022-08-03T14:58:49;32.20;43.70
7494;DHT22;3788;49.902;8.590;2022-08-03T15:01:15;32.20;43.40
7494;DHT22;3788;49.902;8.590;2022-08-03T15:03:42;32.30;43.50
7494;DHT22;3788;49.902;8.590;2022-08-03T15:06:11;32.30;43.70
7494;DHT22;3788;49.902;8.590;2022-08-03T15:08:37;32.30;43.90
7494;DHT22;3788;49.902;8.590;2022-08-03T15:11:04;32.30;44.00
7494;DHT22;3788;49.902;8.590;2022-08-03T15:13:31;32.30;44.20
7494;DHT22;3788;49.902;8.590;2022-08-03T15:15:59;32.30;44.10
7494;DHT22;3788;49.902;8.590;2022-08-03T15:18:25;32.30;43.90
7494;DHT22;3788;49.902;8.590;2022-08-03T15:20:52;32.30;43.90
7494;DHT22;3788;49.902;8.590;2022-08-03T15:23:19;32.30;43.70
7494;DHT22;3788;49.902;8.590;2022-08-03T15:25:46;32.40;43.70
7494;DHT22;3788;49.902;8.590;2022-08-03T15:28:13;32.50;43.70
7494;DHT22;3788;49.902;8.590;2022-08-03T15:30:40;32.50;43.70
7494;DHT22;3788;49.902;8.590;2022-08-03T15:33:08;32.50;43.90
7494;DHT22;3788;49.902;8.590;2022-08-03T15:35:35;32.50;44.00
7494;DHT22;3788;49.902;8.590;2022-08-03T15:38:01;32.40;43.80
7494;DHT22;3788;49.902;8.590;2022-08-03T15:40:28;32.40;43.60
7494;DHT22;3788;49.902;8.590;2022-08-03T15:42:55;32.40;43.60
7494;DHT22;3788;49.902;8.590;2022-08-03T15:45:22;32.30;44.30
7494;DHT22;3788;49.902;8.590;2022-08-03T15:47:48;32.30;43.70
7494;DHT22;3788;49.902;8.590;2022-08-03T15:50:16;32.20;43.60
7494;DHT22;3788;49.902;8.590;2022-08-03T15:52:43;32.20;43.50
7494;DHT22;3788;49.902;8.590;2022-08-03T15:55:10;32.20;43.80
7494;DHT22;3788;49.902;8.590;2022-08-03T15:57:36;32.20;43.80
7494;DHT22;3788;49.902;8.590;2022-08-03T16:00:04;32.20;43.70
7494;DHT22;3788;49.902;8.590;2022-08-03T16:02:31;32.20;43.80
7494;DHT22;3788;49.902;8.590;2022-08-03T16:04:58;32.20;44.00
7494;DHT22;3788;49.902;8.590;2022-08-03T16:07:26;32.10;44.00
7494;DHT22;3788;49.902;8.590;2022-08-03T16:10:11;32.10;44.10
7494;DHT22;3788;49.902;8.590;2022-08-03T16:12:38;32.20;44.00
7494;DHT22;3788;49.902;8.590;2022-08-03T16:15:06;32.20;44.00
7494;DHT22;3788;49.902;8.590;2022-08-03T16:17:33;32.20;44.00
7494;DHT22;3788;49.902;8.590;2022-08-03T16:20:00;32.10;43.80